sensor_id;sensor_type;location;lat;lon;timestamp;temperature;humidity
41904;DHT22;27586;51.124;4.182;2024-03-02T00:00:07;7.60;99.90
41904;DHT22;27586;51.124;4.182;2024-03-02T00:02:47;7.60;99.90
41904;DHT22;27586;51.124;4.182;2024-03-02T00:05:18;7.60;99.90
41904;DHT22;27586;51.124;4.182;2024-03-02T00:07:46;7.60;99.90
41904;DHT22;27586;51.124;4.182;2024-03-02T00:10:16;7.60;99.90
41904;DHT22;27586;51.124;4.182;2024-03-02T00:12:47;7.60;99.90
41904;DHT22;27586;51.124;4.182;2024-03-02T00:18:01;7.60;99.90
41904;DHT22;27586;51.124;4.182;2024-03-02T00:20:26;7.60;99.90
41904;DHT22;27586;51.124;4.182;2024-03-02T00:23:06;7.50;99.90
41904;DHT22;27586;51.124;4.182;2024-03-02T00:25:48;7.60;99.90
41904;DHT22;27586;51.124;4.182;2024-03-02T00:28:17;7.50;99.90
41904;DHT22;27586;51.124;4.182;2024-03-02T00:33:10;7.60;99.90
41904;DHT22;27586;51.124;4.182;2024-03-02T00:35:36;7.60;99.90
41904;DHT22;27586;51.124;4.182;2024-03-02T00:38:06;7.50;99.90
41904;DHT22;27586;51.124;4.182;2024-03-02T00:40:32;7.50;99.90
41904;DHT22;27586;51.124;4.182;2024-03-02T00:42:58;7.50;99.90
41904;DHT22;27586;51.124;4.182;2024-03-02T00:45:24;7.50;99.90
41904;DHT22;27586;51.124;4.182;2024-03-02T00:47:51;7.50;99.90
41904;DHT22;27586;51.124;4.182;2024-03-02T00:50:16;7.50;99.90
41904;DHT22;27586;51.124;4.182;2024-03-02T00:52:43;7.60;99.90
41904;DHT22;27586;51.124;4.182;2024-03-02T00:55:09;7.60;99.90
41904;DHT22;27586;51.124;4.182;2024-03-02T00:57:34;7.60;99.90
41904;DHT22;27586;51.124;4.182;2024-03-02T01:00:00;7.50;99.90
41904;DHT22;27586;51.124;4.182;2024-03-02T01:02:26;7.50;99.90
41904;DHT22;27586;51.124;4.182;2024-03-02T01:04:52;7.60;99.90
41904;DHT22;27586;51.124;4.182;2024-03-02T01:07:18;7.60;99.90
41904;DHT22;27586;51.124;4.182;2024-03-02T01:09:43;7.60;99.90
41904;DHT22;27586;51.124;4.182;2024-03-02T01:12:10;7.60;99.90
41904;DHT22;27586;51.124;4.182;2024-03-02T01:14:36;7.60;99.90
41904;DHT22;27586;51.124;4.182;2024-03-02T01:17:01;7.60;99.90
41904;DHT22;27586;51.124;4.182;2024-03-02T01:19:30;7.60;99.90
41904;DHT22;27586;51.124;4.182;2024-03-02T01:21:55;7.60;99.90
41904;DHT22;27586;51.124;4.182;2024-03-02T01:24:22;7.60;99.90
41904;DHT22;27586;51.124;4.182;2024-03-02T01:26:47;7.60;99.90
41904;DHT22;27586;51.124;4.182;2024-03-02T01:29:13;7.60;99.90
41904;DHT22;27586;51.124;4.182;2024-03-02T01:31:39;7.60;99.90
41904;DHT22;27586;51.124;4.182;2024-03-02T01:34:07;7.70;99.90
41904;DHT22;27586;51.124;4.182;2024-03-02T01:36:33;7.60;99.90
41904;DHT22;27586;51.124;4.182;2024-03-02T01:38:59;7.70;99.90
41904;DHT22;27586;51.124;4.182;2024-03-02T01:41:24;7.60;99.90
41904;DHT22;27586;51.124;4.182;2024-03-02T01:43:50;7.70;99.90
41904;DHT22;27586;51.124;4.182;2024-03-02T01:46:16;7.70;99.90
41904;DHT22;27586;51.124;4.182;2024-03-02T01:48:41;7.70;99.90
41904;DHT22;27586;51.124;4.182;2024-03-02T01:51:07;7.70;99.90
41904;DHT22;27586;51.124;4.182;2024-03-02T01:53:34;7.70;99.90
41904;DHT22;27586;51.124;4.182;2024-03-02T01:56:00;7.70;99.90
41904;DHT22;27586;51.124;4.182;2024-03-02T01:58:27;7.70;99.90
41904;DHT22;27586;51.124;4.182;2024-03-02T02:00:52;7.70;99.90
41904;DHT22;27586;51.124;4.182;2024-03-02T02:03:18;7.60;99.90
41904;DHT22;27586;51.124;4.182;2024-03-02T02:05:44;7.60;99.90
41904;DHT22;27586;51.124;4.182;2024-03-02T02:08:10;7.60;99.90
41904;DHT22;27586;51.124;4.182;2024-03-02T02:10:36;7.60;99.90
41904;DHT22;27586;51.124;4.182;2024-03-02T02:13:02;7.60;99.90
41904;DHT22;27586;51.124;4.182;2024-03-02T02:15:29;7.50;99.90
41904;DHT22;27586;51.124;4.182;2024-03-02T02:17:56;7.40;99.90
41904;DHT22;27586;51.124;4.182;2024-03-02T02:20:23;7.30;99.90
41904;DHT22;27586;51.124;4.182;2024-03-02T02:25:26;7.30;99.90
41904;DHT22;27586;51.124;4.182;2024-03-02T02:27:52;7.30;99.90
41904;DHT22;27586;51.124;4.182;2024-03-02T02:30:23;7.20;99.90
41904;DHT22;27586;51.124;4.182;2024-03-02T02:32:49;7.10;99.90
41904;DHT22;27586;51.124;4.182;2024-03-02T02:35:15;7.20;99.90
41904;DHT22;27586;51.124;4.182;2024-03-02T02:37:41;7.20;99.90
41904;DHT22;27586;51.124;4.182;2024-03-02T02:40:07;7.30;99.90
41904;DHT22;27586;51.124;4.182;2024-03-02T02:42:34;7.20;99.90
41904;DHT22;27586;51.124;4.182;2024-03-02T02:45:00;7.30;99.90
41904;DHT22;27586;51.124;4.182;2024-03-02T02:47:26;7.30;99.90
41904;DHT22;27586;51.124;4.182;2024-03-02T02:49:51;7.20;99.90
41904;DHT22;27586;51.124;4.182;2024-03-02T02:52:17;7.20;99.90
41904;DHT22;27586;51.124;4.182;2024-03-02T02:54:43;7.20;99.90
41904;DHT22;27586;51.124;4.182;2024-03-02T02:57:09;7.30;99.90
41904;DHT22;27586;51.124;4.182;2024-03-02T02:59:36;7.30;99.90
41904;DHT22;27586;51.124;4.182;2024-03-02T03:02:02;7.30;99.90
41904;DHT22;27586;51.124;4.182;2024-03-02T03:04:28;7.30;99.90
41904;DHT22;27586;51.124;4.182;2024-03-02T03:06:53;7.30;99.90
41904;DHT22;27586;51.124;4.182;2024-03-02T03:09:19;7.40;99.90
41904;DHT22;27586;51.124;4.182;2024-03-02T03:11:44;7.40;99.90
41904;DHT22;27586;51.124;4.182;2024-03-02T03:14:10;7.50;99.90
41904;DHT22;27586;51.124;4.182;2024-03-02T03:16:36;7.40;99.90
41904;DHT22;27586;51.124;4.182;2024-03-02T03:19:01;7.40;99.90
41904;DHT22;27586;51.124;4.182;2024-03-02T03:21:27;7.40;99.90
41904;DHT22;27586;51.124;4.182;2024-03-02T03:23:52;7.50;99.90
41904;DHT22;27586;51.124;4.182;2024-03-02T03:26:18;7.50;99.90
41904;DHT22;27586;51.124;4.182;2024-03-02T03:28:44;7.50;99.90
41904;DHT22;27586;51.124;4.182;2024-03-02T03:31:10;7.40;99.90
41904;DHT22;27586;51.124;4.182;2024-03-02T03:33:36;7.50;99.90
41904;DHT22;27586;51.124;4.182;2024-03-02T03:36:01;7.40;99.90
41904;DHT22;27586;51.124;4.182;2024-03-02T03:38:29;7.40;99.90
41904;DHT22;27586;51.124;4.182;2024-03-02T03:40:55;7.40;99.90
41904;DHT22;27586;51.124;4.182;2024-03-02T03:43:21;7.40;99.90
41904;DHT22;27586;51.124;4.182;2024-03-02T03:45:46;7.50;99.90
41904;DHT22;27586;51.124;4.182;2024-03-02T03:48:12;7.40;99.90
41904;DHT22;27586;51.124;4.182;2024-03-02T03:50:38;7.50;99.90
41904;DHT22;27586;51.124;4.182;2024-03-02T03:53:03;7.50;99.90
41904;DHT22;27586;51.124;4.182;2024-03-02T03:55:29;7.50;99.90
41904;DHT22;27586;51.124;4.182;2024-03-02T03:57:55;7.50;99.90
41904;DHT22;27586;51.124;4.182;2024-03-02T04:00:20;7.50;99.90
41904;DHT22;27586;51.124;4.182;2024-03-02T04:02:46;7.50;99.90
41904;DHT22;27586;51.124;4.182;2024-03-02T04:05:12;7.60;99.90
41904;DHT22;27586;51.124;4.182;2024-03-02T04:07:37;7.60;99.90
41904;DHT22;27586;51.124;4.182;2024-03-02T04:10:07;7.60;99.90
41904;DHT22;27586;51.124;4.182;2024-03-02T04:12:34;7.60;99.90
41904;DHT22;27586;51.124;4.182;2024-03-02T04:15:00;7.60;99.90
41904;DHT22;27586;51.124;4.182;2024-03-02T04:17:27;7.60;99.90
41904;DHT22;27586;51.124;4.182;2024-03-02T04:19:52;7.60;99.90
41904;DHT22;27586;51.124;4.182;2024-03-02T04:22:18;7.60;99.90
41904;DHT22;27586;51.124;4.182;2024-03-02T04:24:44;7.60;99.90
41904;DHT22;27586;51.124;4.182;2024-03-02T04:27:09;7.50;99.90
41904;DHT22;27586;51.124;4.182;2024-03-02T04:29:35;7.50;99.90
41904;DHT22;27586;51.124;4.182;2024-03-02T04:32:01;7.60;99.90
41904;DHT22;27586;51.124;4.182;2024-03-02T04:34:26;7.50;99.90
41904;DHT22;27586;51.124;4.182;2024-03-02T04:36:52;7.40;99.90
41904;DHT22;27586;51.124;4.182;2024-03-02T04:39:17;7.50;99.90
41904;DHT22;27586;51.124;4.182;2024-03-02T04:41:43;7.50;99.90
41904;DHT22;27586;51.124;4.182;2024-03-02T04:44:09;7.50;99.90
41904;DHT22;27586;51.124;4.182;2024-03-02T04:46:34;7.50;99.90
41904;DHT22;27586;51.124;4.182;2024-03-02T04:49:00;7.50;99.90
41904;DHT22;27586;51.124;4.182;2024-03-02T04:51:26;7.40;99.90
41904;DHT22;27586;51.124;4.182;2024-03-02T04:53:51;7.30;99.90
41904;DHT22;27586;51.124;4.182;2024-03-02T04:56:17;7.20;99.90
41904;DHT22;27586;51.124;4.182;2024-03-02T04:58:58;7.20;99.90
41904;DHT22;27586;51.124;4.182;2024-03-02T05:01:23;7.10;99.90
41904;DHT22;27586;51.124;4.182;2024-03-02T05:03:49;7.10;99.90
41904;DHT22;27586;51.124;4.182;2024-03-02T05:06:14;7.10;99.90
41904;DHT22;27586;51.124;4.182;2024-03-02T05:08:40;7.00;99.90
41904;DHT22;27586;51.124;4.182;2024-03-02T05:11:06;7.00;99.90
41904;DHT22;27586;51.124;4.182;2024-03-02T05:13:50;6.90;99.90
41904;DHT22;27586;51.124;4.182;2024-03-02T05:16:16;6.90;99.90
41904;DHT22;27586;51.124;4.182;2024-03-02T05:18:41;6.90;99.90
41904;DHT22;27586;51.124;4.182;2024-03-02T05:21:07;6.90;99.90
41904;DHT22;27586;51.124;4.182;2024-03-02T05:23:32;6.80;99.90
41904;DHT22;27586;51.124;4.182;2024-03-02T05:25:58;6.80;99.90
41904;DHT22;27586;51.124;4.182;2024-03-02T05:28:24;6.70;99.90
41904;DHT22;27586;51.124;4.182;2024-03-02T05:30:50;6.70;99.90
41904;DHT22;27586;51.124;4.182;2024-03-02T05:33:15;6.60;99.90
41904;DHT22;27586;51.124;4.182;2024-03-02T05:35:41;6.60;99.90
41904;DHT22;27586;51.124;4.182;2024-03-02T05:38:07;6.60;99.90
41904;DHT22;27586;51.124;4.182;2024-03-02T05:40:32;6.50;99.90
41904;DHT22;27586;51.124;4.182;2024-03-02T05:42:58;6.50;99.90
41904;DHT22;27586;51.124;4.182;2024-03-02T05:45:23;6.50;99.90
41904;DHT22;27586;51.124;4.182;2024-03-02T05:47:49;6.40;99.90
41904;DHT22;27586;51.124;4.182;2024-03-02T05:50:15;6.40;99.90
41904;DHT22;27586;51.124;4.182;2024-03-02T05:52:40;6.40;99.90
41904;DHT22;27586;51.124;4.182;2024-03-02T05:55:06;6.40;99.90
41904;DHT22;27586;51.124;4.182;2024-03-02T05:57:32;6.40;99.90
41904;DHT22;27586;51.124;4.182;2024-03-02T06:00:09;6.40;99.90
41904;DHT22;27586;51.124;4.182;2024-03-02T06:02:39;6.40;99.90
41904;DHT22;27586;51.124;4.182;2024-03-02T06:05:05;6.40;99.90
41904;DHT22;27586;51.124;4.182;2024-03-02T06:07:32;6.40;99.90
41904;DHT22;27586;51.124;4.182;2024-03-02T06:09:58;6.40;99.90
41904;DHT22;27586;51.124;4.182;2024-03-02T06:12:24;6.30;99.90
41904;DHT22;27586;51.124;4.182;2024-03-02T06:14:49;6.30;99.90
41904;DHT22;27586;51.124;4.182;2024-03-02T06:17:15;6.30;99.90
41904;DHT22;27586;51.124;4.182;2024-03-02T06:19:40;6.30;99.90
41904;DHT22;27586;51.124;4.182;2024-03-02T06:22:06;6.30;99.90
41904;DHT22;27586;51.124;4.182;2024-03-02T06:24:36;6.40;99.90
41904;DHT22;27586;51.124;4.182;2024-03-02T06:27:02;6.30;99.90
41904;DHT22;27586;51.124;4.182;2024-03-02T06:29:27;6.30;99.90
41904;DHT22;27586;51.124;4.182;2024-03-02T06:31:53;6.30;99.90
41904;DHT22;27586;51.124;4.182;2024-03-02T06:34:19;6.30;99.90
41904;DHT22;27586;51.124;4.182;2024-03-02T06:36:44;6.30;99.90
41904;DHT22;27586;51.124;4.182;2024-03-02T06:39:10;6.30;99.90
41904;DHT22;27586;51.124;4.182;2024-03-02T06:41:37;6.30;99.90
41904;DHT22;27586;51.124;4.182;2024-03-02T06:44:03;6.30;99.90
41904;DHT22;27586;51.124;4.182;2024-03-02T06:46:29;6.30;99.90
41904;DHT22;27586;51.124;4.182;2024-03-02T06:48:55;6.20;99.90
41904;DHT22;27586;51.124;4.182;2024-03-02T06:51:20;6.20;99.90
41904;DHT22;27586;51.124;4.182;2024-03-02T06:53:46;6.30;99.90
41904;DHT22;27586;51.124;4.182;2024-03-02T06:56:12;6.20;99.90
41904;DHT22;27586;51.124;4.182;2024-03-02T06:58:37;6.20;99.90
41904;DHT22;27586;51.124;4.182;2024-03-02T07:01:03;6.30;99.90
41904;DHT22;27586;51.124;4.182;2024-03-02T07:03:29;6.30;99.90
41904;DHT22;27586;51.124;4.182;2024-03-02T07:05:54;6.30;99.90
41904;DHT22;27586;51.124;4.182;2024-03-02T07:08:20;6.40;99.90
41904;DHT22;27586;51.124;4.182;2024-03-02T07:10:46;6.40;99.90
41904;DHT22;27586;51.124;4.182;2024-03-02T07:13:12;6.50;99.90
41904;DHT22;27586;51.124;4.182;2024-03-02T07:15:38;6.50;99.90
41904;DHT22;27586;51.124;4.182;2024-03-02T07:18:22;6.50;99.90
41904;DHT22;27586;51.124;4.182;2024-03-02T07:20:48;6.50;99.90
41904;DHT22;27586;51.124;4.182;2024-03-02T07:23:15;6.60;99.90
41904;DHT22;27586;51.124;4.182;2024-03-02T07:25:40;6.70;99.90
41904;DHT22;27586;51.124;4.182;2024-03-02T07:28:06;6.70;99.90
41904;DHT22;27586;51.124;4.182;2024-03-02T07:30:33;6.80;99.90
41904;DHT22;27586;51.124;4.182;2024-03-02T07:32:59;6.80;99.90
41904;DHT22;27586;51.124;4.182;2024-03-02T07:35:25;6.90;99.90
41904;DHT22;27586;51.124;4.182;2024-03-02T07:37:53;7.00;99.90
41904;DHT22;27586;51.124;4.182;2024-03-02T07:40:19;7.00;99.90
41904;DHT22;27586;51.124;4.182;2024-03-02T07:42:45;7.10;99.90
41904;DHT22;27586;51.124;4.182;2024-03-02T07:45:11;7.20;99.90
41904;DHT22;27586;51.124;4.182;2024-03-02T07:47:37;7.30;99.90
41904;DHT22;27586;51.124;4.182;2024-03-02T07:50:03;7.30;99.90
41904;DHT22;27586;51.124;4.182;2024-03-02T07:52:32;7.30;99.90
41904;DHT22;27586;51.124;4.182;2024-03-02T07:54:57;7.40;99.90
41904;DHT22;27586;51.124;4.182;2024-03-02T07:57:23;7.50;99.90
41904;DHT22;27586;51.124;4.182;2024-03-02T07:59:49;7.60;99.90
41904;DHT22;27586;51.124;4.182;2024-03-02T08:02:15;7.70;99.90
41904;DHT22;27586;51.124;4.182;2024-03-02T08:04:41;7.80;99.90
41904;DHT22;27586;51.124;4.182;2024-03-02T08:07:07;7.80;99.90
41904;DHT22;27586;51.124;4.182;2024-03-02T08:09:34;7.90;99.90
41904;DHT22;27586;51.124;4.182;2024-03-02T08:11:59;8.00;99.90
41904;DHT22;27586;51.124;4.182;2024-03-02T08:14:25;8.10;99.90
41904;DHT22;27586;51.124;4.182;2024-03-02T08:16:50;8.10;99.90
41904;DHT22;27586;51.124;4.182;2024-03-02T08:19:16;8.20;99.90
41904;DHT22;27586;51.124;4.182;2024-03-02T08:21:43;8.30;99.90
41904;DHT22;27586;51.124;4.182;2024-03-02T08:24:09;8.40;99.90
41904;DHT22;27586;51.124;4.182;2024-03-02T08:26:34;8.50;99.90
41904;DHT22;27586;51.124;4.182;2024-03-02T08:29:00;8.50;99.90
41904;DHT22;27586;51.124;4.182;2024-03-02T08:31:29;8.50;99.90
41904;DHT22;27586;51.124;4.182;2024-03-02T08:33:55;8.60;99.90
41904;DHT22;27586;51.124;4.182;2024-03-02T08:36:22;8.60;99.90
41904;DHT22;27586;51.124;4.182;2024-03-02T08:38:49;8.70;99.90
41904;DHT22;27586;51.124;4.182;2024-03-02T08:41:15;8.70;99.90
41904;DHT22;27586;51.124;4.182;2024-03-02T08:43:42;8.70;99.90
41904;DHT22;27586;51.124;4.182;2024-03-02T08:46:08;8.80;99.90
41904;DHT22;27586;51.124;4.182;2024-03-02T08:48:34;8.80;99.90
41904;DHT22;27586;51.124;4.182;2024-03-02T08:50:59;9.00;99.90
41904;DHT22;27586;51.124;4.182;2024-03-02T08:53:25;9.00;99.90
41904;DHT22;27586;51.124;4.182;2024-03-02T08:55:51;9.00;99.90
41904;DHT22;27586;51.124;4.182;2024-03-02T08:58:17;9.10;99.90
41904;DHT22;27586;51.124;4.182;2024-03-02T09:00:43;9.20;99.90
41904;DHT22;27586;51.124;4.182;2024-03-02T09:03:09;9.30;99.90
41904;DHT22;27586;51.124;4.182;2024-03-02T09:05:35;9.20;99.90
41904;DHT22;27586;51.124;4.182;2024-03-02T09:08:01;9.30;99.90
41904;DHT22;27586;51.124;4.182;2024-03-02T09:10:26;9.30;99.90
41904;DHT22;27586;51.124;4.182;2024-03-02T09:12:52;9.40;99.90
41904;DHT22;27586;51.124;4.182;2024-03-02T09:15:18;9.40;99.90
41904;DHT22;27586;51.124;4.182;2024-03-02T09:17:43;9.50;99.90
41904;DHT22;27586;51.124;4.182;2024-03-02T09:20:10;9.40;99.90
41904;DHT22;27586;51.124;4.182;2024-03-02T09:22:36;9.40;99.90
41904;DHT22;27586;51.124;4.182;2024-03-02T09:25:02;9.40;99.90
41904;DHT22;27586;51.124;4.182;2024-03-02T09:27:28;9.40;99.90
41904;DHT22;27586;51.124;4.182;2024-03-02T09:29:53;9.50;99.90
41904;DHT22;27586;51.124;4.182;2024-03-02T09:32:19;9.70;99.90
41904;DHT22;27586;51.124;4.182;2024-03-02T09:34:44;9.80;99.90
41904;DHT22;27586;51.124;4.182;2024-03-02T09:37:10;10.10;99.90
41904;DHT22;27586;51.124;4.182;2024-03-02T09:39:36;10.10;99.90
41904;DHT22;27586;51.124;4.182;2024-03-02T09:42:04;10.10;99.90
41904;DHT22;27586;51.124;4.182;2024-03-02T09:44:30;10.10;99.90
41904;DHT22;27586;51.124;4.182;2024-03-02T09:46:55;10.20;99.90
41904;DHT22;27586;51.124;4.182;2024-03-02T09:49:21;10.20;99.90
41904;DHT22;27586;51.124;4.182;2024-03-02T09:51:48;10.20;99.90
41904;DHT22;27586;51.124;4.182;2024-03-02T09:54:15;10.30;99.90
41904;DHT22;27586;51.124;4.182;2024-03-02T09:56:41;10.40;99.90
41904;DHT22;27586;51.124;4.182;2024-03-02T09:59:07;10.40;99.90
41904;DHT22;27586;51.124;4.182;2024-03-02T10:01:33;10.50;99.90
41904;DHT22;27586;51.124;4.182;2024-03-02T10:03:59;10.50;99.90
41904;DHT22;27586;51.124;4.182;2024-03-02T10:06:26;10.60;99.90
41904;DHT22;27586;51.124;4.182;2024-03-02T10:08:53;10.70;99.90
41904;DHT22;27586;51.124;4.182;2024-03-02T10:11:34;10.80;99.90
41904;DHT22;27586;51.124;4.182;2024-03-02T10:14:12;10.90;99.90
41904;DHT22;27586;51.124;4.182;2024-03-02T10:16:42;10.80;99.90
41904;DHT22;27586;51.124;4.182;2024-03-02T10:19:21;10.80;99.90
41904;DHT22;27586;51.124;4.182;2024-03-02T10:21:51;10.90;99.90
41904;DHT22;27586;51.124;4.182;2024-03-02T10:24:21;10.90;99.90
41904;DHT22;27586;51.124;4.182;2024-03-02T10:26:48;10.90;99.90
41904;DHT22;27586;51.124;4.182;2024-03-02T10:29:13;10.90;99.90
41904;DHT22;27586;51.124;4.182;2024-03-02T10:31:41;11.00;99.90
41904;DHT22;27586;51.124;4.182;2024-03-02T10:34:08;11.10;99.90
41904;DHT22;27586;51.124;4.182;2024-03-02T10:36:34;11.20;99.90
41904;DHT22;27586;51.124;4.182;2024-03-02T10:39:06;11.20;99.90
41904;DHT22;27586;51.124;4.182;2024-03-02T10:41:36;11.30;99.90
41904;DHT22;27586;51.124;4.182;2024-03-02T10:44:07;11.40;99.90
41904;DHT22;27586;51.124;4.182;2024-03-02T10:46:35;11.30;99.90
41904;DHT22;27586;51.124;4.182;2024-03-02T10:49:02;11.40;99.90
41904;DHT22;27586;51.124;4.182;2024-03-02T10:51:31;11.40;99.90
41904;DHT22;27586;51.124;4.182;2024-03-02T10:53:58;11.50;99.90
41904;DHT22;27586;51.124;4.182;2024-03-02T10:56:30;11.50;99.90
41904;DHT22;27586;51.124;4.182;2024-03-02T10:59:03;11.60;99.90
41904;DHT22;27586;51.124;4.182;2024-03-02T11:01:30;11.70;99.90
41904;DHT22;27586;51.124;4.182;2024-03-02T11:03:58;11.70;99.90
41904;DHT22;27586;51.124;4.182;2024-03-02T11:06:25;11.90;99.90
41904;DHT22;27586;51.124;4.182;2024-03-02T11:08:54;12.00;99.90
41904;DHT22;27586;51.124;4.182;2024-03-02T11:11:29;12.00;99.90
41904;DHT22;27586;51.124;4.182;2024-03-02T11:13:57;12.00;99.90
41904;DHT22;27586;51.124;4.182;2024-03-02T11:16:35;12.10;99.90
41904;DHT22;27586;51.124;4.182;2024-03-02T11:19:06;12.10;99.90
41904;DHT22;27586;51.124;4.182;2024-03-02T11:21:34;12.20;99.90
41904;DHT22;27586;51.124;4.182;2024-03-02T11:24:00;12.20;99.90
41904;DHT22;27586;51.124;4.182;2024-03-02T11:26:27;12.30;99.90
41904;DHT22;27586;51.124;4.182;2024-03-02T11:28:54;12.30;99.90
41904;DHT22;27586;51.124;4.182;2024-03-02T11:31:21;12.50;99.90
41904;DHT22;27586;51.124;4.182;2024-03-02T11:33:47;12.50;99.90
41904;DHT22;27586;51.124;4.182;2024-03-02T11:36:12;12.50;99.90
41904;DHT22;27586;51.124;4.182;2024-03-02T11:38:38;12.50;99.90
41904;DHT22;27586;51.124;4.182;2024-03-02T11:41:07;12.60;99.90
41904;DHT22;27586;51.124;4.182;2024-03-02T11:43:40;12.50;99.90
41904;DHT22;27586;51.124;4.182;2024-03-02T11:46:06;12.50;99.90
41904;DHT22;27586;51.124;4.182;2024-03-02T11:48:33;12.40;99.90
41904;DHT22;27586;51.124;4.182;2024-03-02T11:51:00;12.30;99.90
41904;DHT22;27586;51.124;4.182;2024-03-02T11:53:27;12.40;99.90
41904;DHT22;27586;51.124;4.182;2024-03-02T11:55:58;12.30;99.90
41904;DHT22;27586;51.124;4.182;2024-03-02T11:58:24;12.30;99.90
41904;DHT22;27586;51.124;4.182;2024-03-02T12:00:53;12.30;99.90
41904;DHT22;27586;51.124;4.182;2024-03-02T12:03:22;12.30;99.90
41904;DHT22;27586;51.124;4.182;2024-03-02T12:05:52;12.20;99.90
41904;DHT22;27586;51.124;4.182;2024-03-02T12:08:18;12.30;99.90
41904;DHT22;27586;51.124;4.182;2024-03-02T12:10:59;12.20;99.90
41904;DHT22;27586;51.124;4.182;2024-03-02T12:13:24;12.20;99.90
41904;DHT22;27586;51.124;4.182;2024-03-02T12:15:54;12.10;99.90
41904;DHT22;27586;51.124;4.182;2024-03-02T12:18:23;12.10;99.90
41904;DHT22;27586;51.124;4.182;2024-03-02T12:20:50;12.10;99.90
41904;DHT22;27586;51.124;4.182;2024-03-02T12:23:18;12.10;99.90
41904;DHT22;27586;51.124;4.182;2024-03-02T12:25:45;12.20;99.90
41904;DHT22;27586;51.124;4.182;2024-03-02T12:28:11;12.20;99.90
41904;DHT22;27586;51.124;4.182;2024-03-02T12:30:37;12.30;99.90
41904;DHT22;27586;51.124;4.182;2024-03-02T12:33:03;12.30;99.90
41904;DHT22;27586;51.124;4.182;2024-03-02T12:35:29;12.30;99.90
41904;DHT22;27586;51.124;4.182;2024-03-02T12:37:55;12.40;99.90
41904;DHT22;27586;51.124;4.182;2024-03-02T12:40:22;12.40;99.90
41904;DHT22;27586;51.124;4.182;2024-03-02T12:42:49;12.30;99.90
41904;DHT22;27586;51.124;4.182;2024-03-02T12:45:15;12.40;99.90
41904;DHT22;27586;51.124;4.182;2024-03-02T12:47:42;12.50;99.90
41904;DHT22;27586;51.124;4.182;2024-03-02T12:50:09;12.90;99.90
41904;DHT22;27586;51.124;4.182;2024-03-02T12:52:35;13.10;99.90
41904;DHT22;27586;51.124;4.182;2024-03-02T12:55:03;13.10;99.90
41904;DHT22;27586;51.124;4.182;2024-03-02T12:57:33;13.10;99.90
41904;DHT22;27586;51.124;4.182;2024-03-02T13:00:03;13.20;99.90
41904;DHT22;27586;51.124;4.182;2024-03-02T13:02:35;13.20;99.90
41904;DHT22;27586;51.124;4.182;2024-03-02T13:05:01;13.10;99.90
41904;DHT22;27586;51.124;4.182;2024-03-02T13:07:27;13.00;99.90
41904;DHT22;27586;51.124;4.182;2024-03-02T13:09:55;13.00;99.90
41904;DHT22;27586;51.124;4.182;2024-03-02T13:12:22;12.90;99.90
41904;DHT22;27586;51.124;4.182;2024-03-02T13:14:53;12.90;99.90
41904;DHT22;27586;51.124;4.182;2024-03-02T13:17:20;13.00;99.90
41904;DHT22;27586;51.124;4.182;2024-03-02T13:19:55;12.90;99.90
41904;DHT22;27586;51.124;4.182;2024-03-02T13:22:21;12.90;99.90
41904;DHT22;27586;51.124;4.182;2024-03-02T13:24:48;12.90;99.90
41904;DHT22;27586;51.124;4.182;2024-03-02T13:27:13;12.90;99.90
41904;DHT22;27586;51.124;4.182;2024-03-02T13:29:39;12.90;99.90
41904;DHT22;27586;51.124;4.182;2024-03-02T13:32:06;13.00;99.90
41904;DHT22;27586;51.124;4.182;2024-03-02T13:34:31;12.90;99.90
41904;DHT22;27586;51.124;4.182;2024-03-02T13:36:57;12.80;99.90
41904;DHT22;27586;51.124;4.182;2024-03-02T13:39:23;12.80;99.90
41904;DHT22;27586;51.124;4.182;2024-03-02T13:41:49;12.70;99.90
41904;DHT22;27586;51.124;4.182;2024-03-02T13:44:19;12.70;99.90
41904;DHT22;27586;51.124;4.182;2024-03-02T13:46:45;12.60;99.90
41904;DHT22;27586;51.124;4.182;2024-03-02T13:49:11;12.60;99.90
41904;DHT22;27586;51.124;4.182;2024-03-02T13:51:37;12.60;99.90
41904;DHT22;27586;51.124;4.182;2024-03-02T13:54:03;12.50;99.90
41904;DHT22;27586;51.124;4.182;2024-03-02T13:56:29;12.40;99.90
41904;DHT22;27586;51.124;4.182;2024-03-02T13:58:55;12.40;99.90
41904;DHT22;27586;51.124;4.182;2024-03-02T14:01:21;12.30;99.90
41904;DHT22;27586;51.124;4.182;2024-03-02T14:03:47;12.30;99.90
41904;DHT22;27586;51.124;4.182;2024-03-02T14:06:13;12.30;99.90
41904;DHT22;27586;51.124;4.182;2024-03-02T14:08:39;12.20;99.90
41904;DHT22;27586;51.124;4.182;2024-03-02T14:11:04;12.20;99.90
41904;DHT22;27586;51.124;4.182;2024-03-02T14:13:30;12.20;99.90
41904;DHT22;27586;51.124;4.182;2024-03-02T14:15:56;12.30;99.90
41904;DHT22;27586;51.124;4.182;2024-03-02T14:18:21;12.30;99.90
41904;DHT22;27586;51.124;4.182;2024-03-02T14:20:47;12.30;99.90
41904;DHT22;27586;51.124;4.182;2024-03-02T14:23:18;12.20;99.90
41904;DHT22;27586;51.124;4.182;2024-03-02T14:25:45;12.30;99.90
41904;DHT22;27586;51.124;4.182;2024-03-02T14:28:11;12.30;99.90
41904;DHT22;27586;51.124;4.182;2024-03-02T14:30:37;12.30;99.90
41904;DHT22;27586;51.124;4.182;2024-03-02T14:33:03;12.30;99.90
41904;DHT22;27586;51.124;4.182;2024-03-02T14:35:29;12.30;99.90
41904;DHT22;27586;51.124;4.182;2024-03-02T14:37:55;12.20;99.90
41904;DHT22;27586;51.124;4.182;2024-03-02T14:40:23;12.20;99.90
41904;DHT22;27586;51.124;4.182;2024-03-02T14:42:52;12.10;99.90
41904;DHT22;27586;51.124;4.182;2024-03-02T14:45:18;12.10;99.90
41904;DHT22;27586;51.124;4.182;2024-03-02T14:47:43;12.10;99.90
41904;DHT22;27586;51.124;4.182;2024-03-02T14:50:10;12.00;99.90
41904;DHT22;27586;51.124;4.182;2024-03-02T14:52:36;12.00;99.90
41904;DHT22;27586;51.124;4.182;2024-03-02T14:55:02;11.90;99.90
41904;DHT22;27586;51.124;4.182;2024-03-02T14:57:29;11.90;99.90
41904;DHT22;27586;51.124;4.182;2024-03-02T14:59:55;11.80;99.90
41904;DHT22;27586;51.124;4.182;2024-03-02T15:02:21;11.90;99.90
41904;DHT22;27586;51.124;4.182;2024-03-02T15:04:47;11.90;99.90
41904;DHT22;27586;51.124;4.182;2024-03-02T15:07:13;11.90;99.90
41904;DHT22;27586;51.124;4.182;2024-03-02T15:09:39;11.90;99.90
41904;DHT22;27586;51.124;4.182;2024-03-02T15:12:06;11.90;99.90
41904;DHT22;27586;51.124;4.182;2024-03-02T15:14:35;12.00;99.90
41904;DHT22;27586;51.124;4.182;2024-03-02T15:17:01;12.00;99.90
41904;DHT22;27586;51.124;4.182;2024-03-02T15:19:26;12.00;99.90
41904;DHT22;27586;51.124;4.182;2024-03-02T15:21:52;12.00;99.90
41904;DHT22;27586;51.124;4.182;2024-03-02T15:24:18;11.90;99.90
41904;DHT22;27586;51.124;4.182;2024-03-02T15:26:43;11.90;99.90
41904;DHT22;27586;51.124;4.182;2024-03-02T15:29:09;11.90;99.90
41904;DHT22;27586;51.124;4.182;2024-03-02T15:31:34;11.80;99.90
41904;DHT22;27586;51.124;4.182;2024-03-02T15:34:00;11.70;99.90
41904;DHT22;27586;51.124;4.182;2024-03-02T15:36:26;11.70;99.90
41904;DHT22;27586;51.124;4.182;2024-03-02T15:38:52;11.70;99.90
41904;DHT22;27586;51.124;4.182;2024-03-02T15:41:17;11.70;99.90
41904;DHT22;27586;51.124;4.182;2024-03-02T15:43:43;11.70;99.90